createdAt,value
2019-03-19T00:00:39.037Z,43.26
2019-03-19T00:01:39.115Z,43.28
2019-03-19T00:02:39.022Z,43.26
2019-03-19T00:03:39.040Z,43.27
2019-03-19T00:04:39.136Z,43.32
2019-03-19T00:05:39.236Z,43.32
2019-03-19T00:06:39.030Z,43.28
2019-03-19T00:07:39.150Z,43.26
2019-03-19T00:08:39.066Z,43.33
2019-03-19T00:09:39.066Z,43.34
2019-03-19T00:10:39.113Z,43.31
2019-03-19T00:11:39.145Z,43.3
2019-03-19T00:12:39.239Z,43.29
2019-03-19T00:13:39.131Z,43.3
2019-03-19T00:14:39.222Z,43.34
2019-03-19T00:15:39.154Z,43.32
2019-03-19T00:16:38.855Z,43.31
2019-03-19T00:17:38.952Z,43.35
2019-03-19T00:18:39.015Z,43.36
2019-03-19T00:19:38.910Z,43.39
2019-03-19T00:20:38.922Z,43.3
2019-03-19T00:21:38.924Z,43.37
2019-03-19T00:22:39.159Z,43.33
2019-03-19T00:23:39.361Z,43.37
2019-03-19T00:24:39.382Z,43.31
2019-03-19T00:25:39.510Z,43.33
2019-03-19T00:26:39.084Z,43.33
2019-03-19T00:27:39.285Z,43.35
2019-03-19T00:28:39.433Z,43.34
2019-03-19T00:29:39.037Z,43.34
2019-03-19T00:30:39.095Z,43.34
2019-03-19T00:31:39.115Z,43.35
2019-03-19T00:32:39.292Z,43.32
2019-03-19T00:33:39.172Z,43.34
2019-03-19T00:34:38.962Z,43.34
2019-03-19T00:35:38.951Z,43.34
2019-03-19T00:36:38.958Z,43.38
2019-03-19T00:37:39.062Z,43.36
2019-03-19T00:38:39.076Z,43.41
2019-03-19T00:39:38.906Z,43.36
2019-03-19T00:40:39.123Z,43.34
2019-03-19T00:41:39.123Z,43.35
2019-03-19T00:42:39.103Z,43.37
2019-03-19T00:43:39.075Z,43.35
2019-03-19T00:44:39.198Z,43.38
2019-03-19T00:45:39.784Z,43.4
2019-03-19T00:46:39.128Z,43.39
2019-03-19T00:47:39.188Z,43.39
2019-03-19T00:48:39.380Z,43.38
2019-03-19T00:49:39.120Z,43.4
2019-03-19T00:50:39.203Z,43.36
2019-03-19T00:51:38.875Z,43.32
2019-03-19T00:52:38.894Z,43.32
2019-03-19T00:53:38.955Z,43.38
2019-03-19T00:54:39.220Z,43.32
2019-03-19T00:55:41.431Z,43.35
2019-03-19T00:56:38.899Z,43.33
2019-03-19T00:57:38.931Z,43.37
2019-03-19T00:58:38.991Z,43.4
2019-03-19T00:59:39.323Z,43.36
2019-03-19T01:00:39.044Z,43.31
2019-03-19T01:01:39.365Z,43.3
2019-03-19T01:02:39.033Z,43.36
2019-03-19T01:03:39.028Z,43.37
2019-03-19T01:04:39.053Z,43.35
2019-03-19T01:05:39.007Z,43.37
2019-03-19T01:06:39.055Z,43.36
2019-03-19T01:07:39.387Z,43.38
2019-03-19T01:08:39.610Z,43.33
2019-03-19T01:09:38.998Z,43.34
2019-03-19T01:10:38.953Z,43.37
2019-03-19T01:11:39.010Z,43.36
2019-03-19T01:12:38.958Z,43.37
2019-03-19T01:13:39.072Z,43.36
2019-03-19T01:14:38.975Z,43.4
2019-03-19T01:15:38.997Z,43.37
2019-03-19T01:16:39.015Z,43.33
2019-03-19T01:17:39.108Z,43.37
2019-03-19T01:18:39.086Z,43.37
2019-03-19T01:19:39.117Z,43.38
2019-03-19T01:20:39.227Z,43.38
2019-03-19T01:21:39.194Z,43.39
2019-03-19T01:22:39.244Z,43.39
2019-03-19T01:23:39.099Z,43.38
2019-03-19T01:24:39.198Z,43.41
2019-03-19T01:25:55.921Z,43.39
2019-03-19T01:26:39.003Z,43.4
2019-03-19T01:27:39.012Z,43.38
2019-03-19T01:28:39.026Z,43.34
2019-03-19T01:29:39.261Z,43.37
2019-03-19T01:30:39.099Z,43.39
2019-03-19T01:31:38.947Z,43.41
2019-03-19T01:32:38.980Z,43.39
2019-03-19T01:33:38.983Z,43.43
2019-03-19T01:34:39.138Z,43.35
2019-03-19T01:35:39.068Z,43.36
2019-03-19T01:36:38.989Z,43.38
2019-03-19T01:37:39.036Z,43.35
2019-03-19T01:38:39.080Z,43.4
2019-03-19T01:39:39.144Z,43.33
2019-03-19T01:40:39.142Z,43.39
2019-03-19T01:41:39.131Z,43.37
2019-03-19T01:42:39.294Z,43.39
2019-03-19T01:43:38.972Z,43.36
2019-03-19T01:44:39.025Z,43.42
2019-03-19T01:45:39.440Z,43.37
2019-03-19T01:46:38.923Z,43.42
2019-03-19T01:47:38.998Z,43.34
2019-03-19T01:48:39.003Z,43.41
2019-03-19T01:49:38.981Z,43.34
2019-03-19T01:50:39.306Z,43.41
2019-03-19T01:51:39.525Z,43.4
2019-03-19T01:52:39.194Z,43.36
2019-03-19T01:53:39.019Z,43.39
2019-03-19T01:54:39.181Z,43.38
2019-03-19T01:55:39.110Z,43.41
2019-03-19T01:56:39.097Z,43.41
2019-03-19T01:57:39.176Z,43.36
2019-03-19T01:58:39.120Z,43.38
2019-03-19T01:59:38.800Z,43.36
2019-03-19T02:00:38.846Z,43.35
2019-03-19T02:01:38.905Z,43.37
2019-03-19T02:02:38.939Z,43.36
2019-03-19T02:03:38.867Z,43.35
2019-03-19T02:04:39.109Z,43.36
2019-03-19T02:05:38.945Z,43.41
2019-03-19T02:06:38.960Z,43.41
2019-03-19T02:07:39.023Z,43.37
2019-03-19T02:08:39.053Z,43.41
2019-03-19T02:09:38.955Z,43.37
2019-03-19T02:10:39.133Z,43.41
2019-03-19T02:11:39.231Z,43.37
2019-03-19T02:12:39.522Z,43.37
2019-03-19T02:13:39.057Z,43.35
2019-03-19T02:14:39.076Z,43.38
2019-03-19T02:15:39.275Z,43.38
2019-03-19T02:16:38.906Z,43.36
2019-03-19T02:17:39.026Z,43.38
2019-03-19T02:18:38.928Z,43.37
2019-03-19T02:19:38.928Z,43.38
2019-03-19T02:20:38.953Z,43.38
2019-03-19T02:21:38.935Z,43.38
2019-03-19T02:22:39.046Z,43.33
2019-03-19T02:23:38.990Z,43.32
2019-03-19T02:24:39.032Z,43.32
2019-03-19T02:25:39.027Z,43.35
2019-03-19T02:26:39.046Z,43.37
2019-03-19T02:27:38.810Z,43.38
2019-03-19T02:28:39.036Z,43.39
2019-03-19T02:29:39.146Z,43.38
2019-03-19T02:30:39.141Z,43.37
2019-03-19T02:31:39.117Z,43.38
2019-03-19T02:32:39.291Z,43.33
2019-03-19T02:33:39.346Z,43.34
2019-03-19T02:34:38.880Z,43.32
2019-03-19T02:35:38.929Z,43.35
2019-03-19T02:36:38.942Z,43.3
2019-03-19T02:37:38.934Z,43.34
2019-03-19T02:38:38.947Z,43.34
2019-03-19T02:39:39.040Z,43.39
2019-03-19T02:40:39.122Z,43.36
2019-03-19T02:41:39.074Z,43.4
2019-03-19T02:42:39.170Z,43.36
2019-03-19T02:43:39.102Z,43.39
2019-03-19T02:44:39.042Z,43.32
2019-03-19T02:45:39.056Z,43.36
2019-03-19T02:46:39.070Z,43.37
2019-03-19T02:47:39.086Z,43.38
2019-03-19T02:48:40.212Z,43.37
2019-03-19T02:49:39.061Z,43.36
2019-03-19T02:50:39.058Z,43.35
2019-03-19T02:51:39.032Z,43.34
2019-03-19T02:52:38.909Z,43.32
2019-03-19T02:53:38.979Z,43.34
2019-03-19T02:54:38.983Z,43.32
2019-03-19T02:55:39.292Z,43.35
2019-03-19T02:56:39.366Z,43.32
2019-03-19T02:57:38.999Z,43.34
2019-03-19T02:58:39.039Z,43.32
2019-03-19T02:59:39.001Z,43.3
2019-03-19T03:00:39.229Z,43.31
2019-03-19T03:01:39.222Z,43.36
2019-03-19T03:02:39.190Z,43.36
2019-03-19T03:03:39.078Z,43.32
2019-03-19T03:04:39.175Z,43.35
2019-03-19T03:05:39.117Z,43.36
2019-03-19T03:06:39.187Z,43.37
2019-03-19T03:07:39.136Z,43.33
2019-03-19T03:08:39.131Z,43.35
2019-03-19T03:09:39.043Z,43.35
2019-03-19T03:10:38.884Z,43.34
2019-03-19T03:11:38.893Z,43.35
2019-03-19T03:12:38.886Z,43.37
2019-03-19T03:13:38.964Z,43.29
2019-03-19T03:14:39.071Z,43.34
2019-03-19T03:15:39.052Z,43.35
2019-03-19T03:16:38.957Z,43.35
2019-03-19T03:17:39.025Z,43.34
2019-03-19T03:18:39.443Z,43.34
2019-03-19T03:19:39.066Z,43.3
2019-03-19T03:20:39.065Z,43.36
2019-03-19T03:21:38.996Z,43.3
2019-03-19T03:22:39.302Z,43.3
2019-03-19T03:23:39.041Z,43.33
2019-03-19T03:24:39.101Z,43.3
2019-03-19T03:25:39.044Z,43.34
2019-03-19T03:26:49.160Z,43.35
2019-03-19T03:27:38.882Z,43.35
2019-03-19T03:28:38.874Z,43.31
2019-03-19T03:29:39.070Z,43.34
2019-03-19T03:30:39.129Z,43.31
2019-03-19T03:31:39.130Z,43.3
2019-03-19T03:32:39.072Z,43.3
2019-03-19T03:33:39.406Z,43.29
2019-03-19T03:34:39.189Z,43.26
2019-03-19T03:35:38.955Z,43.29
2019-03-19T03:36:39.007Z,43.32
2019-03-19T03:37:39.038Z,43.34
2019-03-19T03:38:38.812Z,43.37
2019-03-19T03:39:38.986Z,43.28
2019-03-19T03:40:39.012Z,43.28
2019-03-19T03:41:39.311Z,43.31
2019-03-19T03:42:39.023Z,43.28
2019-03-19T03:43:39.069Z,43.33
2019-03-19T03:44:39.090Z,43.29
2019-03-19T03:45:39.101Z,43.29
2019-03-19T03:46:38.878Z,43.31
2019-03-19T03:47:38.842Z,43.31
2019-03-19T03:48:38.911Z,43.33
2019-03-19T03:49:38.942Z,43.33
2019-03-19T03:50:38.996Z,43.36
2019-03-19T03:51:39.063Z,43.34
2019-03-19T03:52:38.831Z,43.31
2019-03-19T03:53:38.959Z,43.32
2019-03-19T03:54:39.200Z,43.26
2019-03-19T03:55:39.094Z,43.26
2019-03-19T03:56:38.985Z,43.33
2019-03-19T03:57:38.986Z,43.27
2019-03-19T03:58:38.972Z,43.33
2019-03-19T03:59:39.033Z,43.33
2019-03-19T04:00:39.320Z,43.28
2019-03-19T04:01:39.409Z,43.33
2019-03-19T04:02:39.016Z,43.32
2019-03-19T04:03:39.041Z,43.31
2019-03-19T04:04:38.810Z,43.28
2019-03-19T04:05:38.919Z,43.27
2019-03-19T04:06:38.915Z,43.24
2019-03-19T04:07:38.931Z,43.3
2019-03-19T04:08:38.980Z,43.32
2019-03-19T04:09:38.875Z,43.29
2019-03-19T04:10:39.064Z,43.27
2019-03-19T04:11:39.066Z,43.32
2019-03-19T04:12:38.951Z,43.29
2019-03-19T04:13:38.941Z,43.29
2019-03-19T04:14:38.988Z,43.3
2019-03-19T04:15:39.000Z,43.29
2019-03-19T04:16:39.132Z,43.34
2019-03-19T04:17:39.088Z,43.3
2019-03-19T04:18:39.100Z,43.32
2019-03-19T04:19:39.094Z,43.3
2019-03-19T04:20:39.235Z,43.3
2019-03-19T04:21:39.113Z,43.29
2019-03-19T04:22:39.090Z,43.29
2019-03-19T04:23:38.872Z,43.3
2019-03-19T04:24:38.994Z,43.32
2019-03-19T04:25:38.785Z,43.32
2019-03-19T04:26:38.936Z,43.23
2019-03-19T04:27:41.549Z,43.27
2019-03-19T04:28:39.030Z,43.32
2019-03-19T04:29:38.975Z,43.29
2019-03-19T04:30:39.043Z,43.29
2019-03-19T04:31:38.943Z,43.32
2019-03-19T04:32:38.959Z,43.28
2019-03-19T04:33:38.909Z,43.29
2019-03-19T04:34:38.900Z,43.27
2019-03-19T04:35:39.025Z,43.29
2019-03-19T04:36:39.016Z,43.31
2019-03-19T04:37:39.047Z,43.31
2019-03-19T04:38:39.170Z,43.28
2019-03-19T04:39:38.808Z,43.27
2019-03-19T04:40:38.854Z,43.26
2019-03-19T04:41:38.861Z,43.3
2019-03-19T04:42:38.907Z,43.31
2019-03-19T04:43:38.917Z,43.32
2019-03-19T04:44:39.025Z,43.3
2019-03-19T04:45:39.011Z,43.34
2019-03-19T04:46:38.895Z,43.32
2019-03-19T04:47:38.936Z,43.32
2019-03-19T04:48:38.899Z,43.32
2019-03-19T04:49:38.971Z,43.29
2019-03-19T04:50:38.942Z,43.27
2019-03-19T04:51:38.948Z,43.24
2019-03-19T04:52:38.979Z,43.23
2019-03-19T04:53:39.013Z,43.23
2019-03-19T04:54:39.030Z,43.21
2019-03-19T04:55:38.993Z,43.22
2019-03-19T04:56:39.028Z,43.21
2019-03-19T04:57:39.059Z,43.21
2019-03-19T04:58:38.838Z,43.28
2019-03-19T04:59:38.939Z,43.28
2019-03-19T05:00:38.839Z,43.29
2019-03-19T05:01:38.780Z,43.28
2019-03-19T05:02:38.902Z,43.27
2019-03-19T05:03:38.948Z,43.23
2019-03-19T05:04:39.014Z,43.16
2019-03-19T05:05:39.126Z,43.18
2019-03-19T05:06:39.048Z,43.13
2019-03-19T05:07:39.000Z,43.09
2019-03-19T05:08:39.061Z,43.09
2019-03-19T05:09:38.997Z,43.12
2019-03-19T05:10:38.930Z,43.09
2019-03-19T05:11:38.985Z,43.04
2019-03-19T05:12:38.917Z,43
2019-03-19T05:13:38.994Z,42.98
2019-03-19T05:14:39.144Z,43.05
2019-03-19T05:15:39.157Z,43.04
2019-03-19T05:16:38.795Z,43
2019-03-19T05:17:38.857Z,42.97
2019-03-19T05:18:38.917Z,42.98
2019-03-19T05:19:38.947Z,43.02
2019-03-19T05:20:38.878Z,43.01
2019-03-19T05:21:38.976Z,43.03
2019-03-19T05:22:39.008Z,43.03
2019-03-19T05:23:39.187Z,43.05
2019-03-19T05:24:38.952Z,43.01
2019-03-19T05:25:38.987Z,43.05
2019-03-19T05:26:39.046Z,42.97
2019-03-19T05:27:39.291Z,43.07
2019-03-19T05:28:39.412Z,43.05
2019-03-19T05:29:39.283Z,43.08
2019-03-19T05:30:39.030Z,43.05
2019-03-19T05:31:39.022Z,43.05
2019-03-19T05:32:39.147Z,43.02
2019-03-19T05:33:39.163Z,43.01
2019-03-19T05:34:38.907Z,43.05
2019-03-19T05:35:38.840Z,43.08
2019-03-19T05:36:38.823Z,43.11
2019-03-19T05:37:38.780Z,43.11
2019-03-19T05:38:38.892Z,43.13
2019-03-19T05:39:38.843Z,43.04
2019-03-19T05:40:38.887Z,43.12
2019-03-19T05:41:38.830Z,43.1
2019-03-19T05:42:38.875Z,43.12
2019-03-19T05:43:39.004Z,43.13
2019-03-19T05:44:38.930Z,43.14
2019-03-19T05:45:38.897Z,43.14
2019-03-19T05:46:38.932Z,43.12
2019-03-19T05:47:41.292Z,43.17
2019-03-19T05:48:38.994Z,43.11
2019-03-19T05:49:39.047Z,43.15
2019-03-19T05:50:39.192Z,43.11
2019-03-19T05:51:38.920Z,43.09
2019-03-19T05:52:38.883Z,43.14
2019-03-19T05:53:38.884Z,43.09
2019-03-19T05:54:38.859Z,43.17
2019-03-19T05:55:38.997Z,43.1
2019-03-19T05:56:38.880Z,43.07
2019-03-19T05:57:50.906Z,43.02
2019-03-19T05:58:38.972Z,43.09
2019-03-19T05:59:40.391Z,43.06
2019-03-19T06:00:38.951Z,43.09
2019-03-19T06:01:38.934Z,43.07
2019-03-19T06:02:38.939Z,43.06
2019-03-19T06:03:38.911Z,43.11
2019-03-19T06:04:38.991Z,43.08
2019-03-19T06:05:38.984Z,43.09
2019-03-19T06:06:39.023Z,43.09
2019-03-19T06:07:39.029Z,43.07
2019-03-19T06:08:38.990Z,43.05
2019-03-19T06:09:39.016Z,43.04
2019-03-19T06:10:39.115Z,43.04
2019-03-19T06:11:38.817Z,43.08
2019-03-19T06:12:38.814Z,43.05
2019-03-19T06:13:38.921Z,43.08
2019-03-19T06:14:38.915Z,43.02
2019-03-19T06:15:38.858Z,43.02
2019-03-19T06:16:38.938Z,43.02
2019-03-19T06:17:38.884Z,43.02
2019-03-19T06:18:38.931Z,43.01
2019-03-19T06:19:39.058Z,43.01
2019-03-19T06:20:39.031Z,43.01
2019-03-19T06:21:38.957Z,43.01
2019-03-19T06:22:38.998Z,43
2019-03-19T06:23:39.063Z,42.98
2019-03-19T06:24:38.951Z,42.98
2019-03-19T06:25:39.068Z,43
2019-03-19T06:26:39.069Z,42.98
2019-03-19T06:27:38.822Z,43
2019-03-19T06:28:38.866Z,42.98
2019-03-19T06:29:38.786Z,42.95
2019-03-19T06:30:38.837Z,42.96
2019-03-19T06:31:38.920Z,43.01
2019-03-19T06:32:39.351Z,42.96
2019-03-19T06:33:39.358Z,42.98
2019-03-19T06:34:38.907Z,43
2019-03-19T06:35:38.900Z,42.98
2019-03-19T06:36:38.946Z,43
2019-03-19T06:37:38.929Z,42.93
2019-03-19T06:38:38.893Z,42.96
2019-03-19T06:39:38.956Z,42.91
2019-03-19T06:40:38.968Z,42.94
2019-03-19T06:41:38.928Z,42.94
2019-03-19T06:42:39.131Z,42.92
2019-03-19T06:43:39.006Z,42.9
2019-03-19T06:44:39.086Z,42.9
2019-03-19T06:45:39.029Z,42.9
2019-03-19T06:46:38.788Z,42.94
2019-03-19T06:47:38.734Z,42.92
2019-03-19T06:48:38.769Z,42.85
2019-03-19T06:49:38.829Z,42.87
2019-03-19T06:50:46.005Z,42.87
2019-03-19T06:51:38.850Z,42.82
2019-03-19T06:52:38.843Z,42.89
2019-03-19T06:53:38.968Z,42.87
2019-03-19T06:54:38.932Z,42.82
2019-03-19T06:55:38.927Z,42.78
2019-03-19T06:56:38.860Z,42.82
2019-03-19T06:57:39.941Z,42.85
2019-03-19T06:58:38.949Z,42.82
2019-03-19T06:59:39.047Z,42.8
2019-03-19T07:00:38.952Z,42.81
2019-03-19T07:01:38.933Z,42.77
2019-03-19T07:02:38.957Z,42.77
2019-03-19T07:03:39.061Z,42.8
2019-03-19T07:04:38.882Z,42.8
2019-03-19T07:05:38.805Z,42.83
2019-03-19T07:06:38.856Z,42.75
2019-03-19T07:07:38.784Z,42.78
2019-03-19T07:08:38.897Z,42.75
2019-03-19T07:09:38.835Z,42.72
2019-03-19T07:10:38.924Z,42.74
2019-03-19T07:11:38.918Z,42.76
2019-03-19T07:12:38.891Z,42.7
2019-03-19T07:13:38.938Z,42.68
2019-03-19T07:14:38.987Z,42.7
2019-03-19T07:15:39.001Z,42.67
2019-03-19T07:16:39.396Z,42.7
2019-03-19T07:17:38.999Z,42.7
2019-03-19T07:18:38.992Z,42.66
2019-03-19T07:19:38.989Z,42.64
2019-03-19T07:20:38.980Z,42.69
2019-03-19T07:21:39.003Z,42.7
2019-03-19T07:22:38.778Z,42.67
2019-03-19T07:23:38.768Z,42.6
2019-03-19T07:24:38.774Z,42.6
2019-03-19T07:25:38.819Z,42.65
2019-03-19T07:26:38.791Z,42.62
2019-03-19T07:27:38.909Z,42.62
2019-03-19T07:28:38.822Z,42.62
2019-03-19T07:29:38.814Z,42.64
2019-03-19T07:30:41.249Z,42.63
2019-03-19T07:31:38.972Z,42.6
2019-03-19T07:32:38.877Z,42.6
2019-03-19T07:33:38.922Z,42.56
2019-03-19T07:34:38.965Z,42.61
2019-03-19T07:35:38.890Z,42.63
2019-03-19T07:36:38.965Z,42.57
2019-03-19T07:37:39.125Z,42.55
2019-03-19T07:38:40.896Z,42.58
2019-03-19T07:39:38.984Z,42.6
2019-03-19T07:40:38.956Z,42.56
2019-03-19T07:41:38.845Z,42.55
2019-03-19T07:42:38.818Z,42.58
2019-03-19T07:43:39.052Z,42.56
2019-03-19T07:44:38.805Z,42.54
2019-03-19T07:45:38.861Z,42.52
2019-03-19T07:46:38.879Z,42.52
2019-03-19T07:47:38.858Z,42.54
2019-03-19T07:48:39.067Z,42.52
2019-03-19T07:49:39.232Z,42.46
2019-03-19T07:50:38.934Z,42.46
2019-03-19T07:51:39.025Z,42.48
2019-03-19T07:52:39.098Z,42.48
2019-03-19T07:53:39.117Z,42.5
2019-03-19T07:54:39.017Z,42.5
2019-03-19T07:55:39.118Z,42.46
2019-03-19T07:56:39.105Z,42.49
2019-03-19T07:57:39.038Z,42.49
2019-03-19T07:58:45.967Z,42.45
2019-03-19T07:59:39.117Z,42.44
2019-03-19T08:00:38.748Z,42.44
2019-03-19T08:01:38.735Z,42.46
2019-03-19T08:02:38.794Z,42.44
2019-03-19T08:03:38.768Z,42.5
2019-03-19T08:04:38.809Z,42.44
2019-03-19T08:05:38.762Z,42.44
2019-03-19T08:06:39.083Z,42.48
2019-03-19T08:07:39.062Z,42.42
2019-03-19T08:08:38.928Z,42.43
2019-03-19T08:09:40.286Z,42.44
2019-03-19T08:10:38.977Z,42.37
2019-03-19T08:11:38.947Z,42.37
2019-03-19T08:12:38.912Z,42.41
2019-03-19T08:13:39.266Z,42.42
2019-03-19T08:14:38.997Z,42.43
2019-03-19T08:15:38.720Z,42.38
2019-03-19T08:16:38.692Z,42.47
2019-03-19T08:17:38.762Z,42.47
2019-03-19T08:18:38.777Z,42.54
2019-03-19T08:19:38.826Z,42.75
2019-03-19T08:20:38.815Z,42.79
2019-03-19T08:21:38.894Z,42.82
2019-03-19T08:22:38.896Z,42.82
2019-03-19T08:23:38.813Z,42.88
2019-03-19T08:24:38.906Z,42.86
2019-03-19T08:25:38.912Z,42.83
2019-03-19T08:26:38.877Z,42.83
2019-03-19T08:27:38.905Z,42.8
2019-03-19T08:28:38.965Z,42.85
2019-03-19T08:29:38.965Z,42.79
2019-03-19T08:30:38.942Z,42.8
2019-03-19T08:31:39.015Z,42.72
2019-03-19T08:32:38.950Z,43
2019-03-19T08:33:39.008Z,43.04
2019-03-19T08:34:38.991Z,42.87
2019-03-19T08:35:38.732Z,43.12
2019-03-19T08:36:38.827Z,42.85
2019-03-19T08:37:38.764Z,42.26
2019-03-19T08:38:38.730Z,42.31
2019-03-19T08:39:38.753Z,42.58
2019-03-19T08:40:38.774Z,42.84
2019-03-19T08:41:38.878Z,42.84
2019-03-19T08:42:39.173Z,42.79
2019-03-19T08:43:38.915Z,42.85
2019-03-19T08:44:39.031Z,42.79
2019-03-19T08:45:38.939Z,42.8
2019-03-19T08:46:38.893Z,42.75
2019-03-19T08:47:38.870Z,42.68
2019-03-19T08:48:38.916Z,42.66
2019-03-19T08:49:39.104Z,42.67
2019-03-19T08:50:38.864Z,42.65
2019-03-19T08:51:38.973Z,42.62
2019-03-19T08:52:38.727Z,42.6
2019-03-19T08:53:38.715Z,42.56
2019-03-19T08:54:38.935Z,42.55
2019-03-19T08:55:38.956Z,42.55
2019-03-19T08:56:38.904Z,42.58
2019-03-19T08:57:38.814Z,42.55
2019-03-19T08:58:38.908Z,42.55
2019-03-19T08:59:38.858Z,42.51
2019-03-19T09:00:38.946Z,42.54
2019-03-19T09:01:38.911Z,42.57
2019-03-19T09:02:38.867Z,42.5
2019-03-19T09:03:38.979Z,42.51
2019-03-19T09:04:38.983Z,42.48
2019-03-19T09:05:38.983Z,42.42
2019-03-19T09:06:38.943Z,42.5
2019-03-19T09:07:39.025Z,42.48
2019-03-19T09:08:38.813Z,42.48
2019-03-19T09:09:38.756Z,42.45
2019-03-19T09:10:38.954Z,42.43
2019-03-19T09:11:39.009Z,42.52
2019-03-19T09:12:38.801Z,42.5
2019-03-19T09:13:38.806Z,42.45
2019-03-19T09:14:38.778Z,42.44
2019-03-19T09:15:38.801Z,42.4
2019-03-19T09:16:38.771Z,42.44
2019-03-19T09:17:38.900Z,42.41
2019-03-19T09:18:38.998Z,42.41
2019-03-19T09:19:38.943Z,42.39
2019-03-19T09:20:38.907Z,42.4
2019-03-19T09:21:38.910Z,42.36
2019-03-19T09:22:38.957Z,42.35
2019-03-19T09:23:38.896Z,42.35
2019-03-19T09:24:38.991Z,42.37
2019-03-19T09:25:38.997Z,42.29
2019-03-19T09:26:38.749Z,42.35
2019-03-19T09:27:38.746Z,42.32
2019-03-19T09:28:38.798Z,42.29
2019-03-19T09:29:38.741Z,42.27
2019-03-19T09:30:38.762Z,42.27
2019-03-19T09:31:38.842Z,42.26
2019-03-19T09:32:38.877Z,42.32
2019-03-19T09:33:38.903Z,42.31
2019-03-19T09:34:38.822Z,42.24
2019-03-19T09:35:38.845Z,42.21
2019-03-19T09:36:38.898Z,42.23
2019-03-19T09:37:59.464Z,42.26
2019-03-19T09:38:38.894Z,42.27
2019-03-19T09:39:39.003Z,42.2
2019-03-19T09:40:38.922Z,42.2
2019-03-19T09:41:38.917Z,42.27
2019-03-19T09:42:39.010Z,42.23
2019-03-19T09:43:39.221Z,42.24
2019-03-19T09:44:38.739Z,42.23
2019-03-19T09:45:38.786Z,42.18
2019-03-19T09:46:38.725Z,42.2
2019-03-19T09:47:38.917Z,42.19
2019-03-19T09:48:38.722Z,42.2
2019-03-19T09:49:39.010Z,42.22
2019-03-19T09:50:38.754Z,42.17
2019-03-19T09:51:38.788Z,42.17
2019-03-19T09:52:38.808Z,42.14
2019-03-19T09:53:38.805Z,42.17
2019-03-19T09:54:38.846Z,42.17
2019-03-19T09:55:38.915Z,42.17
2019-03-19T09:56:38.932Z,42.14
2019-03-19T09:57:38.935Z,42.19
2019-03-19T09:58:38.906Z,42.11
2019-03-19T09:59:38.885Z,42.15
2019-03-19T10:00:38.729Z,42.17
2019-03-19T10:01:38.761Z,42.18
2019-03-19T10:02:38.868Z,42.13
2019-03-19T10:03:38.746Z,42.14
2019-03-19T10:04:38.828Z,42.17
2019-03-19T10:05:38.768Z,42.1
2019-03-19T10:06:39.099Z,42.2
2019-03-19T10:07:38.813Z,42.12
2019-03-19T10:08:38.854Z,42.13
2019-03-19T10:09:38.919Z,42.12
2019-03-19T10:10:39.441Z,42.12
2019-03-19T10:11:38.855Z,42.12
2019-03-19T10:12:39.001Z,42.11
2019-03-19T10:13:38.880Z,42.04
2019-03-19T10:14:38.876Z,42.02
2019-03-19T10:15:39.250Z,42.05
2019-03-19T10:16:38.930Z,42.09
2019-03-19T10:17:39.030Z,42.1
2019-03-19T10:18:38.634Z,42.07
2019-03-19T10:19:38.646Z,42.07
2019-03-19T10:20:38.732Z,42
2019-03-19T10:21:38.773Z,42.03
2019-03-19T10:22:38.843Z,42.09
2019-03-19T10:23:38.778Z,42.07
2019-03-19T10:24:38.784Z,42.04
2019-03-19T10:25:38.859Z,42.02
2019-03-19T10:26:38.783Z,42
2019-03-19T10:27:38.773Z,41.98
2019-03-19T10:28:38.935Z,41.96
2019-03-19T10:29:39.133Z,42.04
2019-03-19T10:30:38.863Z,41.97
2019-03-19T10:31:38.839Z,42
2019-03-19T10:32:38.833Z,42
2019-03-19T10:33:38.948Z,42
2019-03-19T10:34:38.857Z,41.97
2019-03-19T10:35:38.875Z,42.01
2019-03-19T10:36:38.844Z,41.97
2019-03-19T10:37:38.871Z,41.99
2019-03-19T10:38:38.766Z,41.99
2019-03-19T10:39:38.795Z,41.93
2019-03-19T10:40:38.658Z,41.96
2019-03-19T10:41:38.855Z,42.02
2019-03-19T10:42:38.900Z,41.97
2019-03-19T10:43:38.806Z,41.91
2019-03-19T10:44:38.803Z,42
2019-03-19T10:45:38.822Z,41.92
2019-03-19T10:46:38.822Z,41.95
2019-03-19T10:47:38.846Z,42
2019-03-19T10:48:38.885Z,41.91
2019-03-19T10:49:39.002Z,41.88
2019-03-19T10:50:39.121Z,41.95
2019-03-19T10:51:38.921Z,41.96
2019-03-19T10:52:38.929Z,41.88
2019-03-19T10:53:38.994Z,41.87
2019-03-19T10:54:38.615Z,41.92
2019-03-19T10:55:38.840Z,41.87
2019-03-19T10:56:39.347Z,41.96
2019-03-19T10:57:38.639Z,41.91
2019-03-19T10:58:38.646Z,41.84
2019-03-19T10:59:49.730Z,41.86
2019-03-19T11:00:38.679Z,41.94
2019-03-19T11:01:38.725Z,41.92
2019-03-19T11:02:38.731Z,41.87
2019-03-19T11:03:38.848Z,41.87
2019-03-19T11:04:38.786Z,41.91
2019-03-19T11:05:38.808Z,41.91
2019-03-19T11:06:38.871Z,41.9
2019-03-19T11:07:38.926Z,41.85
2019-03-19T11:08:38.717Z,41.88
2019-03-19T11:09:38.885Z,41.87
2019-03-19T11:10:38.883Z,41.82
2019-03-19T11:11:38.967Z,41.9
2019-03-19T11:12:38.730Z,41.82
2019-03-19T11:13:38.714Z,41.85
2019-03-19T11:14:38.715Z,41.87
2019-03-19T11:15:38.720Z,41.85
2019-03-19T11:16:38.820Z,41.81
2019-03-19T11:17:38.810Z,41.86
2019-03-19T11:18:38.791Z,41.8
2019-03-19T11:19:38.792Z,41.84
2019-03-19T11:20:38.796Z,41.88
2019-03-19T11:21:40.659Z,41.85
2019-03-19T11:22:38.866Z,41.84
2019-03-19T11:23:38.842Z,41.86
2019-03-19T11:24:38.849Z,41.79
2019-03-19T11:25:38.891Z,41.8
2019-03-19T11:26:38.936Z,41.8
2019-03-19T11:27:38.914Z,41.8
2019-03-19T11:28:39.019Z,41.82
2019-03-19T11:29:38.653Z,41.78
2019-03-19T11:30:38.640Z,41.92
2019-03-19T11:31:38.611Z,41.89
2019-03-19T11:32:38.650Z,41.8
2019-03-19T11:33:38.768Z,41.78
2019-03-19T11:34:40.131Z,41.81
2019-03-19T11:35:38.711Z,41.8
2019-03-19T11:36:38.766Z,41.77
2019-03-19T11:37:38.839Z,41.8
2019-03-19T11:38:38.715Z,41.84
2019-03-19T11:39:38.850Z,41.76
2019-03-19T11:40:38.890Z,41.76
2019-03-19T11:41:38.796Z,41.77
2019-03-19T11:42:38.955Z,41.78
2019-03-19T11:43:38.839Z,41.73
2019-03-19T11:44:38.846Z,41.75
2019-03-19T11:45:38.954Z,41.75
2019-03-19T11:46:39.163Z,41.76
2019-03-19T11:47:38.708Z,41.73
2019-03-19T11:48:38.670Z,41.78
2019-03-19T11:49:38.706Z,41.77
2019-03-19T11:50:38.697Z,41.73
2019-03-19T11:51:38.738Z,41.73
2019-03-19T11:52:40.560Z,41.82
2019-03-19T11:53:38.871Z,41.67
2019-03-19T11:54:38.743Z,41.77
2019-03-19T11:55:38.829Z,41.76
2019-03-19T11:56:38.751Z,41.71
2019-03-19T11:57:38.847Z,41.71
2019-03-19T11:58:38.868Z,41.77
2019-03-19T11:59:38.820Z,41.67
2019-03-19T12:00:39.217Z,41.74
2019-03-19T12:01:38.883Z,41.68
2019-03-19T12:02:38.858Z,41.77
2019-03-19T12:03:39.585Z,41.64
2019-03-19T12:04:39.184Z,41.71
2019-03-19T12:05:39.505Z,41.71
2019-03-19T12:06:38.668Z,41.71
2019-03-19T12:07:38.664Z,41.75
2019-03-19T12:08:38.644Z,41.72
2019-03-19T12:09:40.499Z,41.67
2019-03-19T12:10:38.869Z,41.7
2019-03-19T12:11:38.715Z,41.66
2019-03-19T12:12:38.812Z,41.72
2019-03-19T12:13:38.897Z,41.7
2019-03-19T12:14:38.792Z,41.67
2019-03-19T12:15:38.962Z,41.7
2019-03-19T12:16:38.808Z,41.66
2019-03-19T12:17:38.865Z,41.71
2019-03-19T12:18:38.891Z,41.66
2019-03-19T12:19:38.914Z,41.66
2019-03-19T12:20:38.825Z,41.7
2019-03-19T12:21:38.883Z,41.67
2019-03-19T12:22:39.042Z,41.67
2019-03-19T12:23:38.676Z,41.69
2019-03-19T12:24:38.731Z,41.69
2019-03-19T12:25:38.805Z,41.68
2019-03-19T12:26:38.718Z,41.63
2019-03-19T12:27:38.742Z,41.61
2019-03-19T12:28:40.240Z,41.67
2019-03-19T12:29:38.788Z,41.61
2019-03-19T12:30:38.768Z,41.58
2019-03-19T12:31:38.798Z,41.63
2019-03-19T12:32:38.780Z,41.59
2019-03-19T12:33:41.965Z,41.61
2019-03-19T12:34:38.928Z,41.57
2019-03-19T12:35:38.878Z,41.58
2019-03-19T12:36:38.789Z,41.58
2019-03-19T12:37:38.876Z,41.6
2019-03-19T12:38:38.921Z,41.65
2019-03-19T12:39:38.930Z,41.58
2019-03-19T12:40:38.699Z,41.59
2019-03-19T12:41:38.645Z,41.58
2019-03-19T12:42:38.644Z,41.6
2019-03-19T12:43:38.717Z,41.59
2019-03-19T12:44:38.670Z,41.61
2019-03-19T12:45:38.698Z,41.56
2019-03-19T12:46:38.757Z,41.58
2019-03-19T12:47:38.717Z,41.56
2019-03-19T12:48:38.684Z,41.56
2019-03-19T12:49:38.738Z,41.6
2019-03-19T12:50:38.767Z,41.59
2019-03-19T12:51:38.830Z,41.61
2019-03-19T12:52:38.867Z,41.61
2019-03-19T12:53:38.837Z,41.61
2019-03-19T12:54:38.950Z,41.61
2019-03-19T12:55:40.003Z,41.59
2019-03-19T12:56:38.906Z,41.61